Virgo Phoenix — 3FMO8 — position and weather

sailwx.info

Track history (hours):
 
Tides and Currents Weather Stations Pressure Air Temp Water Temp Dewpoint Dewpoint Depression Visibility Wind Speed Wind Dir Waves Ship Positions

Virgo Phoenix

Last reported at 2015-Mar-31 08:05 UTC. Time now 2015-Mar-31 20:46 UTC.
Position N 34°60' E 139°32'.

Length 96 m; draft 6.5 m.

Type: Ship (hazmat cat B). MMSI: 370795000.

Date/timePositionNaut miles runAvg speedWind from/ knotsBaromVisibWave heightAir tempDewpointWater temp
2015-Mar-31 08:05N 34°60' E 139°32'611.0
2015-Mar-31 07:31N 35°04' E 139°38'1111.1
2015-Mar-31 06:33N 35°12' E 139°46'1111.2
2015-Mar-31 05:34N 35°23' E 139°42'7 6.4
2015-Mar-31 04:28N 35°29' E 139°47'0 0.1
2015-Mar-31 03:28N 35°29' E 139°47'2 2.4
2015-Mar-31 02:29N 35°31' E 139°46'0 0.0
2015-Mar-31 01:29N 35°31' E 139°46'0 0.0
2015-Mar-31 00:32N 35°31' E 139°46'0 0.0
2015-Mar-30 23:32N 35°31' E 139°46'0 0.0
2015-Mar-30 22:32N 35°31' E 139°46'0 0.0
2015-Mar-30 21:29N 35°31' E 139°46'0 0.0
2015-Mar-30 20:26N 35°31' E 139°46'0 0.0
2015-Mar-30 19:32N 35°31' E 139°46'0 0.0
2015-Mar-30 18:29N 35°31' E 139°46'0 0.0
2015-Mar-30 17:29N 35°31' E 139°46'0 0.0
2015-Mar-30 16:29N 35°31' E 139°46'0 0.0
2015-Mar-30 15:32N 35°31' E 139°46'0 0.0
2015-Mar-30 14:23N 35°31' E 139°46'0 0.0
2015-Mar-30 13:32N 35°31' E 139°46'0 0.0
2015-Mar-30 12:23N 35°31' E 139°46'0 0.0
2015-Mar-30 11:29N 35°31' E 139°46'0 0.0
2015-Mar-30 10:29N 35°31' E 139°46'0 0.0
2015-Mar-30 09:29N 35°31' E 139°46'0 0.0
2015-Mar-30 08:29N 35°31' E 139°46'0 0.0
2015-Mar-30 07:33N 35°31' E 139°46'4 4.4
2015-Mar-30 06:33N 35°28' E 139°42'4 4.0
2015-Mar-30 05:33N 35°27' E 139°47'7 6.4
2015-Mar-30 04:32N 35°23' E 139°41'0 0.0
2015-Mar-30 03:32N 35°23' E 139°41'0 0.0
2015-Mar-30 02:32N 35°22' E 139°41'0 0.0
2015-Mar-30 01:32N 35°22' E 139°41'3 2.7
2015-Mar-30 00:33N 35°20' E 139°43'1211.9
2015-Mar-29 23:33N 35°09' E 139°47'1211.5
2015-Mar-29 22:33N 35°00' E 139°37'  
2015-Mar-24 15:27N 31°02' E 122°15'7 8.2
2015-Mar-24 14:33N 31°03' E 122°07'1111.2
2015-Mar-24 13:34N 31°08' E 121°55'1111.2
2015-Mar-24 12:34N 31°16' E 121°45'1111.4
2015-Mar-24 11:33N 31°23' E 121°35'9 9.1
2015-Mar-24 10:33N 31°29' E 121°27'8 7.8
2015-Mar-24 09:33N 31°33' E 121°19'1010.3
2015-Mar-24 08:33N 31°41' E 121°11'12 8.7
2015-Mar-24 07:08N 31°47' E 120°58'911.3
2015-Mar-24 06:21N 31°54' E 120°53'1411.8
2015-Mar-24 05:08N 31°60' E 120°37'8 9.9
2015-Mar-24 04:17N 31°60' E 120°27'1 0.1
2015-Mar-23 11:12N 31°58' E 120°27'1 1.4
2015-Mar-23 10:32N 31°59' E 120°27'6 5.6
2015-Mar-23 09:27N 32°01' E 120°34'1213.3
2015-Mar-23 08:33N 32°01' E 120°48'1413.4
2015-Mar-23 07:31N 31°48' E 120°55'1513.9
2015-Mar-23 06:25N 31°41' E 121°11'1214.1
2015-Mar-23 05:33N 31°32' E 121°21'1211.4
2015-Mar-23 04:32N 31°25' E 121°32'1212.0
2015-Mar-23 03:33N 31°19' E 121°44'1110.6
2015-Mar-23 02:33N 31°16' E 121°56'1010.3
2015-Mar-23 01:33N 31°13' E 122°07'8 8.2
2015-Mar-23 00:33N 31°08' E 122°15'11 8.8
2015-Mar-22 23:16N 31°07' E 122°28'8 8.3
2015-Mar-22 22:22N 31°07' E 122°37'5 4.4
2015-Mar-22 21:19N 31°09' E 122°42'0 0.0
2015-Mar-22 20:04N 31°09' E 122°42'0 0.1
2015-Mar-22 19:25N 31°09' E 122°42'0 0.1
2015-Mar-22 18:28N 31°09' E 122°42'3 0.7
2015-Mar-22 14:32N 31°09' E 122°45'1513.5
2015-Mar-22 13:24N 31°08' E 123°03'1213.7
2015-Mar-22 12:31N 31°08' E 123°17'1313.8
2015-Mar-22 11:33N 31°07' E 123°33'1412.8
2015-Mar-22 10:28N 31°05' E 123°49'1111.8
2015-Mar-22 09:32N 31°06' E 124°01'1311.2
2015-Mar-22 08:25N 31°05' E 124°16'4411.4
2015-Mar-22 04:32N 31°04' E 125°08'  
Track history (hours):
 
Tides and Currents Weather Stations Pressure Air Temp Water Temp Dewpoint Dewpoint Depression Visibility Wind Speed Wind Dir Waves Ship Positions

Virgo Phoenix

Last reported at 2015-Mar-31 08:05 UTC. Time now 2015-Mar-31 20:46 UTC.
Position N 34°60' E 139°32'.

Length 96 m; draft 6.5 m.

Type: Ship (hazmat cat B). MMSI: 370795000.

Date/timePositionNaut miles runAvg speedWind from/ knotsBaromVisibWave heightAir tempDewpointWater temp
2015-Mar-31 08:05N 34°60' E 139°32'611.0
2015-Mar-31 07:31N 35°04' E 139°38'1111.1
2015-Mar-31 06:33N 35°12' E 139°46'1111.2
2015-Mar-31 05:34N 35°23' E 139°42'7 6.4
2015-Mar-31 04:28N 35°29' E 139°47'0 0.1
2015-Mar-31 03:28N 35°29' E 139°47'2 2.4
2015-Mar-31 02:29N 35°31' E 139°46'0 0.0
2015-Mar-31 01:29N 35°31' E 139°46'0 0.0
2015-Mar-31 00:32N 35°31' E 139°46'0 0.0
2015-Mar-30 23:32N 35°31' E 139°46'0 0.0
2015-Mar-30 22:32N 35°31' E 139°46'0 0.0
2015-Mar-30 21:29N 35°31' E 139°46'0 0.0
2015-Mar-30 20:26N 35°31' E 139°46'0 0.0
2015-Mar-30 19:32N 35°31' E 139°46'0 0.0
2015-Mar-30 18:29N 35°31' E 139°46'0 0.0
2015-Mar-30 17:29N 35°31' E 139°46'0 0.0
2015-Mar-30 16:29N 35°31' E 139°46'0 0.0
2015-Mar-30 15:32N 35°31' E 139°46'0 0.0
2015-Mar-30 14:23N 35°31' E 139°46'0 0.0
2015-Mar-30 13:32N 35°31' E 139°46'0 0.0
2015-Mar-30 12:23N 35°31' E 139°46'0 0.0
2015-Mar-30 11:29N 35°31' E 139°46'0 0.0
2015-Mar-30 10:29N 35°31' E 139°46'0 0.0
2015-Mar-30 09:29N 35°31' E 139°46'0 0.0
2015-Mar-30 08:29N 35°31' E 139°46'0 0.0
2015-Mar-30 07:33N 35°31' E 139°46'4 4.4
2015-Mar-30 06:33N 35°28' E 139°42'4 4.0
2015-Mar-30 05:33N 35°27' E 139°47'7 6.4
2015-Mar-30 04:32N 35°23' E 139°41'0 0.0
2015-Mar-30 03:32N 35°23' E 139°41'0 0.0
2015-Mar-30 02:32N 35°22' E 139°41'0 0.0
2015-Mar-30 01:32N 35°22' E 139°41'3 2.7
2015-Mar-30 00:33N 35°20' E 139°43'1211.9
2015-Mar-29 23:33N 35°09' E 139°47'1211.5
2015-Mar-29 22:33N 35°00' E 139°37'  
2015-Mar-24 15:27N 31°02' E 122°15'7 8.2
2015-Mar-24 14:33N 31°03' E 122°07'1111.2
2015-Mar-24 13:34N 31°08' E 121°55'1111.2
2015-Mar-24 12:34N 31°16' E 121°45'1111.4
2015-Mar-24 11:33N 31°23' E 121°35'9 9.1
2015-Mar-24 10:33N 31°29' E 121°27'8 7.8
2015-Mar-24 09:33N 31°33' E 121°19'1010.3
2015-Mar-24 08:33N 31°41' E 121°11'12 8.7
2015-Mar-24 07:08N 31°47' E 120°58'911.3
2015-Mar-24 06:21N 31°54' E 120°53'1411.8
2015-Mar-24 05:08N 31°60' E 120°37'8 9.9
2015-Mar-24 04:17N 31°60' E 120°27'1 0.1
2015-Mar-23 11:12N 31°58' E 120°27'1 1.4
2015-Mar-23 10:32N 31°59' E 120°27'6 5.6
2015-Mar-23 09:27N 32°01' E 120°34'1213.3
2015-Mar-23 08:33N 32°01' E 120°48'1413.4
2015-Mar-23 07:31N 31°48' E 120°55'1513.9
2015-Mar-23 06:25N 31°41' E 121°11'1214.1
2015-Mar-23 05:33N 31°32' E 121°21'1211.4
2015-Mar-23 04:32N 31°25' E 121°32'1212.0
2015-Mar-23 03:33N 31°19' E 121°44'1110.6
2015-Mar-23 02:33N 31°16' E 121°56'1010.3
2015-Mar-23 01:33N 31°13' E 122°07'8 8.2
2015-Mar-23 00:33N 31°08' E 122°15'11 8.8
2015-Mar-22 23:16N 31°07' E 122°28'8 8.3
2015-Mar-22 22:22N 31°07' E 122°37'5 4.4
2015-Mar-22 21:19N 31°09' E 122°42'0 0.0
2015-Mar-22 20:04N 31°09' E 122°42'0 0.1
2015-Mar-22 19:25N 31°09' E 122°42'0 0.1
2015-Mar-22 18:28N 31°09' E 122°42'3 0.7
2015-Mar-22 14:32N 31°09' E 122°45'1513.5
2015-Mar-22 13:24N 31°08' E 123°03'1213.7
2015-Mar-22 12:31N 31°08' E 123°17'1313.8
2015-Mar-22 11:33N 31°07' E 123°33'1412.8
2015-Mar-22 10:28N 31°05' E 123°49'1111.8
2015-Mar-22 09:32N 31°06' E 124°01'1311.2
2015-Mar-22 08:25N 31°05' E 124°16'4411.4
2015-Mar-22 04:32N 31°04' E 125°08'  

Dump ship's entire track history